Terminal Aerodrome Forecast
Issued by NWS

Home | Current Version | Previous Version | Text Only | Print | Product List | Glossary On
Versions: 1 2 3 4 5 6 7 8 9 10 11 12 13 14 15 16 17 18 19 20 21 22 23
000
FTUS41 KGYX 290531
TAFLEB
TAF
KLEB 290531Z 2906/3006 VRB03KT 4SM BR OVC003
     FM291400 34007KT P6SM BKN025
     FM291600 34010G18KT P6SM BKN025
     FM292300 33004KT P6SM SCT025=

USA.gov is the U.S. government's official web portal to all federal, state and local government web resources and services.